createdAt,value
2022-09-28T00:01:19.787Z,8.71
2022-09-28T00:03:48.465Z,8.63
2022-09-28T00:06:19.409Z,8.58
2022-09-28T00:08:46.883Z,8.62
2022-09-28T00:11:15.490Z,8.62
2022-09-28T00:13:43.333Z,8.53
2022-09-28T00:16:19.710Z,8.52
2022-09-28T00:18:47.192Z,8.52
2022-09-28T00:21:17.005Z,8.52
2022-09-28T00:24:03.478Z,8.51
2022-09-28T00:26:33.062Z,8.48
2022-09-28T00:29:02.141Z,8.52
2022-09-28T00:31:34.631Z,8.51
2022-09-28T00:34:02.661Z,8.57
2022-09-28T00:36:31.628Z,8.55
2022-09-28T00:38:59.216Z,8.56
2022-09-28T00:41:27.893Z,8.56
2022-09-28T00:44:26.360Z,8.55
2022-09-28T00:47:01.995Z,8.55
2022-09-28T00:49:41.891Z,8.59
2022-09-28T00:52:11.903Z,8.59
2022-09-28T00:54:39.151Z,8.60
2022-09-28T00:57:05.848Z,8.59
2022-09-28T00:59:33.974Z,8.66
2022-09-28T01:02:01.998Z,8.68
2022-09-28T01:04:31.333Z,8.69
2022-09-28T01:06:59.280Z,8.69
2022-09-28T01:09:27.769Z,8.72
2022-09-28T01:11:55.343Z,8.68
2022-09-28T01:14:25.794Z,8.67
2022-09-28T01:17:17.193Z,8.64
2022-09-28T01:20:05.948Z,8.64
2022-09-28T01:22:44.424Z,8.59
2022-09-28T01:25:21.207Z,8.54
2022-09-28T01:27:51.757Z,8.55
2022-09-28T01:30:21.509Z,8.56
2022-09-28T01:33:02.623Z,8.57
2022-09-28T01:35:46.115Z,8.54
2022-09-28T01:38:28.759Z,8.47
2022-09-28T01:40:58.198Z,8.55
2022-09-28T01:43:28.242Z,8.53
2022-09-28T01:46:11.037Z,8.47
2022-09-28T01:48:51.844Z,8.41
2022-09-28T01:51:46.127Z,8.44
2022-09-28T01:54:14.697Z,8.40
2022-09-28T01:57:13.551Z,8.46
2022-09-28T01:59:45.384Z,8.43
2022-09-28T02:02:19.498Z,8.46
2022-09-28T02:04:53.806Z,8.31
2022-09-28T02:07:26.191Z,8.44
2022-09-28T02:09:59.861Z,8.43
2022-09-28T02:12:38.575Z,8.46
2022-09-28T02:15:24.133Z,8.47
2022-09-28T02:17:50.879Z,8.43
2022-09-28T02:20:17.943Z,8.39
2022-09-28T02:22:51.728Z,8.34
2022-09-28T02:25:28.889Z,8.36
2022-09-28T02:28:13.723Z,8.30
2022-09-28T02:30:43.692Z,8.21
2022-09-28T02:33:20.011Z,8.24
2022-09-28T02:35:47.199Z,8.18
2022-09-28T02:38:14.943Z,8.23
2022-09-28T02:40:48.898Z,8.20
2022-09-28T02:43:41.288Z,8.26
2022-09-28T02:46:49.361Z,8.24
2022-09-28T02:49:24.115Z,8.26
2022-09-28T02:52:25.746Z,8.24
2022-09-28T02:55:18.102Z,8.25
2022-09-28T02:58:06.934Z,8.24
2022-09-28T03:01:03.689Z,8.18
2022-09-28T03:03:38.960Z,8.18
2022-09-28T03:06:15.239Z,8.20
2022-09-28T03:09:20.537Z,8.24
2022-09-28T03:11:57.048Z,8.21
2022-09-28T03:14:24.090Z,8.12
2022-09-28T03:16:51.081Z,8.23
2022-09-28T03:19:21.205Z,8.23
2022-09-28T03:21:47.935Z,8.15
2022-09-28T03:24:14.758Z,8.09
2022-09-28T03:26:41.549Z,8.18
2022-09-28T03:29:08.258Z,8.22
2022-09-28T03:31:35.827Z,8.21
2022-09-28T03:34:02.783Z,8.21
2022-09-28T03:36:29.636Z,8.16
2022-09-28T03:38:56.571Z,8.20
2022-09-28T03:41:27.952Z,8.20
2022-09-28T03:43:55.006Z,8.19
2022-09-28T03:46:21.703Z,8.23
2022-09-28T03:48:48.485Z,8.25
2022-09-28T03:51:15.232Z,8.16
2022-09-28T03:53:42.042Z,8.14
2022-09-28T03:56:14.174Z,8.13
2022-09-28T03:58:41.149Z,8.06
2022-09-28T04:01:16.948Z,7.99
2022-09-28T04:03:45.019Z,8.01
2022-09-28T04:06:12.266Z,7.95
2022-09-28T04:08:39.356Z,7.89
2022-09-28T04:11:06.502Z,7.92
2022-09-28T04:13:33.479Z,7.98
2022-09-28T04:16:01.681Z,8.00
2022-09-28T04:18:29.121Z,7.88
2022-09-28T04:21:00.795Z,7.92
2022-09-28T04:23:28.216Z,7.92
2022-09-28T04:25:55.014Z,7.93
2022-09-28T04:28:54.227Z,7.98
2022-09-28T04:31:23.747Z,8.01
2022-09-28T04:33:50.525Z,8.01
2022-09-28T04:36:19.740Z,8.07
2022-09-28T04:38:53.264Z,8.06
2022-09-28T04:41:22.506Z,8.11
2022-09-28T04:43:50.327Z,8.04
2022-09-28T04:46:17.570Z,8.00
2022-09-28T04:48:44.456Z,8.01
2022-09-28T04:51:11.359Z,8.08
2022-09-28T04:53:38.187Z,8.13
2022-09-28T04:56:13.856Z,8.03
2022-09-28T04:58:41.057Z,8.05
2022-09-28T05:01:16.217Z,8.10
2022-09-28T05:03:43.949Z,8.15
2022-09-28T05:06:15.025Z,8.17
2022-09-28T05:08:42.679Z,8.18
2022-09-28T05:11:12.093Z,8.13
2022-09-28T05:13:45.295Z,8.05
2022-09-28T05:16:14.210Z,8.06
2022-09-28T05:18:40.865Z,8.05
2022-09-28T05:21:15.174Z,7.89
2022-09-28T05:23:47.379Z,8.01
2022-09-28T05:26:14.835Z,7.97
2022-09-28T05:28:41.656Z,8.03
2022-09-28T05:31:08.526Z,8.05
2022-09-28T05:33:35.421Z,8.02
2022-09-28T05:36:02.407Z,7.97
2022-09-28T05:38:30.097Z,7.92
2022-09-28T05:40:57.209Z,7.95
2022-09-28T05:43:24.212Z,8.00
2022-09-28T05:45:55.384Z,7.97
2022-09-28T05:48:25.575Z,7.96
2022-09-28T05:50:53.064Z,7.92
2022-09-28T05:53:20.494Z,7.93
2022-09-28T05:55:48.187Z,7.93
2022-09-28T05:58:15.279Z,7.96
2022-09-28T06:00:42.341Z,7.86
2022-09-28T06:03:12.624Z,7.94
2022-09-28T06:05:42.139Z,7.91
2022-09-28T06:08:12.954Z,7.89
2022-09-28T06:10:39.999Z,7.93
2022-09-28T06:13:07.253Z,7.95
2022-09-28T06:15:36.202Z,7.95
2022-09-28T06:18:09.699Z,7.94
2022-09-28T06:20:38.767Z,7.94
2022-09-28T06:23:05.474Z,7.94
2022-09-28T06:25:32.316Z,7.97
2022-09-28T06:28:01.274Z,7.93
2022-09-28T06:30:32.182Z,7.97
2022-09-28T06:33:15.977Z,7.93
2022-09-28T06:39:25.282Z,8.12
2022-09-28T06:41:53.571Z,8.16
2022-09-28T06:44:20.521Z,8.19
2022-09-28T06:46:47.887Z,8.19
2022-09-28T06:49:19.296Z,8.14
2022-09-28T06:51:46.454Z,8.10
2022-09-28T06:54:14.234Z,8.21
2022-09-28T06:56:44.744Z,8.29
2022-09-28T06:59:11.462Z,8.37
2022-09-28T07:01:38.435Z,8.42
2022-09-28T07:04:05.216Z,8.43
2022-09-28T07:06:32.031Z,8.46
2022-09-28T07:09:21.359Z,8.44
2022-09-28T07:11:49.495Z,8.45
2022-09-28T07:14:31.943Z,8.52
2022-09-28T07:17:12.966Z,8.62
2022-09-28T07:19:40.800Z,8.62
2022-09-28T07:22:07.622Z,8.57
2022-09-28T07:24:34.541Z,8.58
2022-09-28T07:27:04.590Z,8.49
2022-09-28T07:29:31.364Z,8.44
2022-09-28T07:31:58.220Z,8.52
2022-09-28T07:34:25.158Z,8.50
2022-09-28T07:36:52.015Z,8.42
2022-09-28T07:39:18.588Z,8.44
2022-09-28T07:41:45.623Z,8.47
2022-09-28T07:44:12.399Z,8.52
2022-09-28T07:46:39.090Z,8.53
2022-09-28T07:49:08.494Z,8.63
2022-09-28T07:51:38.246Z,8.63
2022-09-28T07:54:06.689Z,8.72
2022-09-28T07:56:34.948Z,8.67
2022-09-28T07:59:01.772Z,8.65
2022-09-28T08:01:30.669Z,8.67
2022-09-28T08:03:57.354Z,8.67
2022-09-28T08:06:23.958Z,8.73
2022-09-28T08:08:52.974Z,8.79
2022-09-28T08:11:19.801Z,8.88
2022-09-28T08:13:47.472Z,8.98
2022-09-28T08:16:14.620Z,9.06
2022-09-28T08:18:41.483Z,9.13
2022-09-28T08:21:28.963Z,9.18
2022-09-28T08:23:56.275Z,9.26
2022-09-28T08:26:22.931Z,9.35
2022-09-28T08:28:50.287Z,9.39
2022-09-28T08:31:17.277Z,9.47
2022-09-28T08:33:44.001Z,9.55
2022-09-28T08:36:11.240Z,9.47
2022-09-28T08:38:37.890Z,9.55
2022-09-28T08:41:13.167Z,9.62
2022-09-28T08:44:11.153Z,9.64
2022-09-28T08:46:43.796Z,9.78
2022-09-28T08:49:25.815Z,9.78
2022-09-28T08:52:05.401Z,9.81
2022-09-28T08:54:34.763Z,9.80
2022-09-28T08:57:13.609Z,9.81
2022-09-28T08:59:56.113Z,9.93
2022-09-28T09:02:32.085Z,10.05
2022-09-28T09:05:06.874Z,10.12
2022-09-28T09:07:55.593Z,10.22
2022-09-28T09:10:51.189Z,10.08
2022-09-28T09:13:45.926Z,10.23
2022-09-28T09:16:44.560Z,10.19
2022-09-28T09:19:52.167Z,10.27
2022-09-28T09:22:37.682Z,10.38
2022-09-28T09:25:48.377Z,10.26
2022-09-28T09:28:20.739Z,10.26
2022-09-28T09:30:56.324Z,10.24
2022-09-28T09:34:28.263Z,10.20
2022-09-28T09:37:24.181Z,10.29
2022-09-28T09:40:18.020Z,10.39
2022-09-28T09:43:13.964Z,10.84
2022-09-28T09:45:59.380Z,10.80
2022-09-28T09:48:38.543Z,10.76
2022-09-28T09:51:25.040Z,10.80
2022-09-28T09:54:06.251Z,10.76
2022-09-28T09:56:40.946Z,10.82
2022-09-28T09:59:14.136Z,10.70
2022-09-28T10:01:41.731Z,11.87
2022-09-28T10:04:29.201Z,13.32
2022-09-28T10:07:05.739Z,14.10
2022-09-28T10:09:45.819Z,14.53
2022-09-28T10:12:19.880Z,14.33
2022-09-28T10:14:47.760Z,14.22
2022-09-28T10:17:19.811Z,14.91
2022-09-28T10:19:46.703Z,15.02
2022-09-28T10:22:22.986Z,14.19
2022-09-28T10:24:54.920Z,13.41
2022-09-28T10:27:29.847Z,13.92
2022-09-28T10:30:14.966Z,15.17
2022-09-28T10:32:49.277Z,16.23
2022-09-28T10:35:18.992Z,17.14
2022-09-28T10:38:04.796Z,17.64
2022-09-28T10:40:49.260Z,16.67
2022-09-28T10:43:30.281Z,15.68
2022-09-28T10:46:07.815Z,15.38
2022-09-28T10:48:50.232Z,16.01
2022-09-28T10:51:17.441Z,14.72
2022-09-28T10:54:00.583Z,13.83
2022-09-28T10:56:30.180Z,14.37
2022-09-28T10:58:58.064Z,15.73
2022-09-28T11:01:33.638Z,16.73
2022-09-28T11:04:04.962Z,17.50
2022-09-28T11:06:36.630Z,17.19
2022-09-28T11:09:06.314Z,18.15
2022-09-28T11:11:41.680Z,16.29
2022-09-28T11:14:26.332Z,15.36
2022-09-28T11:17:18.113Z,14.67
2022-09-28T11:19:45.554Z,14.23
2022-09-28T11:22:51.788Z,14.97
2022-09-28T11:25:24.197Z,16.97
2022-09-28T11:27:50.950Z,16.90
2022-09-28T11:30:32.962Z,17.59
2022-09-28T11:33:12.593Z,18.61
2022-09-28T11:36:01.482Z,18.31
2022-09-28T11:38:44.314Z,17.03
2022-09-28T11:41:19.678Z,17.90
2022-09-28T11:44:40.214Z,18.65
2022-09-28T11:47:18.690Z,20.05
2022-09-28T11:50:02.519Z,20.03
2022-09-28T11:52:39.745Z,20.68
2022-09-28T11:55:18.668Z,21.59
2022-09-28T11:57:48.867Z,21.62
2022-09-28T12:00:25.293Z,19.75
2022-09-28T12:03:04.227Z,18.42
2022-09-28T12:05:37.503Z,19.66
2022-09-28T12:08:28.694Z,18.68
2022-09-28T12:10:59.542Z,19.02
2022-09-28T12:13:42.281Z,18.72
2022-09-28T12:17:00.459Z,19.79
2022-09-28T12:19:26.342Z,20.34
2022-09-28T12:22:02.247Z,20.05
2022-09-28T12:24:39.233Z,19.78
2022-09-28T12:27:23.841Z,19.49
2022-09-28T12:30:00.077Z,18.33
2022-09-28T12:32:38.612Z,17.05
2022-09-28T12:35:20.451Z,16.60
2022-09-28T12:38:08.899Z,15.94
2022-09-28T12:41:01.350Z,15.56
2022-09-28T12:44:13.295Z,15.12
2022-09-28T12:46:49.095Z,14.89
2022-09-28T12:50:20.075Z,14.78
2022-09-28T12:52:24.941Z,14.54
2022-09-28T12:55:30.586Z,14.19
2022-09-28T12:58:03.496Z,13.69
2022-09-28T13:00:48.039Z,13.59
2022-09-28T13:03:41.228Z,13.58
2022-09-28T13:06:24.459Z,13.44
2022-09-28T13:08:51.069Z,13.41
2022-09-28T13:11:33.265Z,13.51
2022-09-28T13:14:21.412Z,13.61
2022-09-28T13:17:04.698Z,13.64
2022-09-28T13:19:37.408Z,13.96
2022-09-28T13:22:22.993Z,14.80
2022-09-28T13:24:53.540Z,17.00
2022-09-28T13:27:32.087Z,18.04
2022-09-28T13:30:02.494Z,18.76
2022-09-28T13:32:32.167Z,18.10
2022-09-28T13:35:02.193Z,18.01
2022-09-28T13:37:29.793Z,19.30
2022-09-28T13:40:05.934Z,18.51
2022-09-28T13:42:44.894Z,19.58
2022-09-28T13:45:20.830Z,19.68
2022-09-28T13:48:06.557Z,17.76
2022-09-28T13:50:58.608Z,18.20
2022-09-28T13:53:51.244Z,19.62
2022-09-28T13:56:32.704Z,20.39
2022-09-28T13:59:22.302Z,20.45
2022-09-28T14:02:32.805Z,20.71
2022-09-28T14:05:07.115Z,21.20
2022-09-28T14:07:34.909Z,21.77
2022-09-28T14:10:24.614Z,21.62
2022-09-28T14:12:53.110Z,21.79
2022-09-28T14:15:29.049Z,22.17
2022-09-28T14:18:31.968Z,22.10
2022-09-28T14:21:23.566Z,20.86
2022-09-28T14:24:05.610Z,19.13
2022-09-28T14:27:03.517Z,19.57
2022-09-28T14:29:34.164Z,19.49
2022-09-28T14:32:09.586Z,20.19
2022-09-28T14:34:40.837Z,18.60
2022-09-28T14:37:58.254Z,16.91
2022-09-28T14:40:49.952Z,16.46
2022-09-28T14:43:25.441Z,16.62
2022-09-28T14:46:13.165Z,17.93
2022-09-28T14:48:58.105Z,18.86
2022-09-28T14:51:24.779Z,19.99
2022-09-28T14:54:00.388Z,20.02
2022-09-28T14:56:34.156Z,19.64
2022-09-28T14:59:01.227Z,19.49
2022-09-28T15:01:28.215Z,19.09
2022-09-28T15:03:58.113Z,19.32
2022-09-28T15:06:26.954Z,20.66
2022-09-28T15:08:53.722Z,21.50
2022-09-28T15:11:30.293Z,20.72
2022-09-28T15:14:08.383Z,20.09
2022-09-28T15:16:35.269Z,20.79
2022-09-28T15:19:11.003Z,20.11
2022-09-28T15:21:41.145Z,19.85
2022-09-28T15:24:31.669Z,20.45
2022-09-28T15:26:59.855Z,21.15
2022-09-28T15:29:31.209Z,21.77
2022-09-28T15:31:59.011Z,21.19
2022-09-28T15:34:51.365Z,21.10
2022-09-28T15:37:29.142Z,21.56
2022-09-28T15:39:58.237Z,21.42
2022-09-28T15:42:25.127Z,21.33
2022-09-28T15:45:01.291Z,21.65
2022-09-28T15:47:30.155Z,20.94
2022-09-28T15:50:06.637Z,20.73
2022-09-28T15:52:36.559Z,20.14
2022-09-28T15:55:16.127Z,19.71
2022-09-28T15:57:44.171Z,18.98
2022-09-28T16:00:28.742Z,17.99
2022-09-28T16:03:08.816Z,17.65
2022-09-28T16:05:41.149Z,17.04
2022-09-28T16:08:22.165Z,16.58
2022-09-28T16:11:12.219Z,16.39
2022-09-28T16:14:06.452Z,16.03
2022-09-28T16:16:42.181Z,15.64
2022-09-28T16:19:24.649Z,15.25
2022-09-28T16:21:53.399Z,14.92
2022-09-28T16:24:24.331Z,14.68
2022-09-28T16:27:26.780Z,14.50
2022-09-28T16:30:12.328Z,14.45
2022-09-28T16:32:48.099Z,14.18
2022-09-28T16:35:18.949Z,14.23
2022-09-28T16:37:48.851Z,14.06
2022-09-28T16:40:15.747Z,13.91
2022-09-28T16:42:49.172Z,13.96
2022-09-28T16:45:21.916Z,13.96
2022-09-28T16:47:52.926Z,13.97
2022-09-28T16:50:21.434Z,13.96
2022-09-28T16:53:15.038Z,13.81
2022-09-28T16:55:41.896Z,13.72
2022-09-28T16:58:08.627Z,13.60
2022-09-28T17:00:35.710Z,13.58
2022-09-28T17:03:05.705Z,13.47
2022-09-28T17:05:32.448Z,13.30
2022-09-28T17:08:04.896Z,13.21
2022-09-28T17:11:15.730Z,13.07
2022-09-28T17:13:42.259Z,12.91
2022-09-28T17:16:15.205Z,12.63
2022-09-28T17:18:42.274Z,12.61
2022-09-28T17:21:20.713Z,12.53
2022-09-28T17:23:49.461Z,12.46
2022-09-28T17:26:27.403Z,12.45
2022-09-28T17:28:54.203Z,12.47
2022-09-28T17:31:20.990Z,12.52
2022-09-28T17:33:48.235Z,12.57
2022-09-28T17:36:17.627Z,12.53
2022-09-28T17:38:45.623Z,12.48
2022-09-28T17:41:20.463Z,12.25
2022-09-28T17:43:47.856Z,12.29
2022-09-28T17:46:28.752Z,12.29
2022-09-28T17:48:59.541Z,12.38
2022-09-28T17:51:32.419Z,12.44
2022-09-28T17:54:01.109Z,12.37
2022-09-28T17:56:32.146Z,12.36
2022-09-28T17:59:03.173Z,12.36
2022-09-28T18:01:34.336Z,12.35
2022-09-28T18:04:03.794Z,12.33
2022-09-28T18:06:32.622Z,12.39
2022-09-28T18:09:01.907Z,12.21
2022-09-28T18:11:29.952Z,12.28
2022-09-28T18:13:58.063Z,12.18
2022-09-28T18:16:26.179Z,12.01
2022-09-28T18:18:52.966Z,11.92
2022-09-28T18:21:19.927Z,11.77
2022-09-28T18:23:47.451Z,11.78
2022-09-28T18:26:15.588Z,11.68
2022-09-28T18:28:42.569Z,11.65
2022-09-28T18:31:11.294Z,11.60
2022-09-28T18:33:38.804Z,11.63
2022-09-28T18:36:07.270Z,11.58
2022-09-28T18:38:38.163Z,11.59
2022-09-28T18:41:16.874Z,11.58
2022-09-28T18:43:52.011Z,11.49
2022-09-28T18:46:19.276Z,11.48
2022-09-28T18:48:47.467Z,11.47
2022-09-28T18:51:14.744Z,11.51
2022-09-28T18:53:41.728Z,11.38
2022-09-28T18:56:10.883Z,11.37
2022-09-28T18:58:39.191Z,11.37
2022-09-28T19:01:29.456Z,11.39
2022-09-28T19:04:02.230Z,11.31
2022-09-28T19:06:30.014Z,11.29
2022-09-28T19:08:57.025Z,11.25
2022-09-28T19:11:25.224Z,11.15
2022-09-28T19:13:54.019Z,11.14
2022-09-28T19:16:23.187Z,10.93
2022-09-28T19:18:52.454Z,10.97
2022-09-28T19:21:19.558Z,10.93
2022-09-28T19:23:49.270Z,10.87
2022-09-28T19:26:20.505Z,10.81
2022-09-28T19:28:48.617Z,10.69
2022-09-28T19:31:16.058Z,10.67
2022-09-28T19:33:46.648Z,10.60
2022-09-28T19:36:17.809Z,10.54
2022-09-28T19:38:45.359Z,10.50
2022-09-28T19:41:43.101Z,10.50
2022-09-28T19:44:27.598Z,10.43
2022-09-28T19:47:07.166Z,10.33
2022-09-28T19:49:37.194Z,10.36
2022-09-28T19:52:13.414Z,10.36
2022-09-28T19:54:45.802Z,10.32
2022-09-28T19:57:16.246Z,10.26
2022-09-28T19:59:43.207Z,10.24
2022-09-28T20:02:11.033Z,10.20
2022-09-28T20:04:37.970Z,10.10
2022-09-28T20:07:05.310Z,10.11
2022-09-28T20:09:32.710Z,10.06
2022-09-28T20:11:59.486Z,9.97
2022-09-28T20:14:31.801Z,9.94
2022-09-28T20:17:01.031Z,9.97
2022-09-28T20:19:27.814Z,9.94
2022-09-28T20:21:59.888Z,9.94
2022-09-28T20:24:28.985Z,9.86
2022-09-28T20:26:55.978Z,9.83
2022-09-28T20:29:24.361Z,9.80
2022-09-28T20:31:51.958Z,9.75
2022-09-28T20:34:18.992Z,9.65
2022-09-28T20:36:45.660Z,9.62
2022-09-28T20:39:13.152Z,9.59
2022-09-28T20:41:40.474Z,9.54
2022-09-28T20:44:07.603Z,9.55
2022-09-28T20:46:35.440Z,9.48
2022-09-28T20:49:02.558Z,9.43
2022-09-28T20:51:29.405Z,9.36
2022-09-28T20:53:57.998Z,9.33
2022-09-28T20:56:37.765Z,9.24
2022-09-28T20:59:07.961Z,9.23
2022-09-28T21:01:35.117Z,9.12
2022-09-28T21:04:04.253Z,9.16
2022-09-28T21:06:34.288Z,9.17
2022-09-28T21:09:01.509Z,9.15
2022-09-28T21:11:29.764Z,9.09
2022-09-28T21:14:01.812Z,9.08
2022-09-28T21:16:30.440Z,9.03
2022-09-28T21:18:57.852Z,8.97
2022-09-28T21:21:26.264Z,8.99
2022-09-28T21:23:56.627Z,8.95
2022-09-28T21:26:25.680Z,8.96
2022-09-28T21:28:58.013Z,8.92
2022-09-28T21:31:29.145Z,8.90
2022-09-28T21:33:57.281Z,8.91
2022-09-28T21:36:24.078Z,8.86
2022-09-28T21:38:51.009Z,8.78
2022-09-28T21:41:17.936Z,8.77
2022-09-28T21:43:45.804Z,8.75
2022-09-28T21:46:12.556Z,8.70
2022-09-28T21:48:39.923Z,8.68
2022-09-28T21:51:09.245Z,8.69
2022-09-28T21:53:37.849Z,8.66
2022-09-28T21:56:06.972Z,8.63
2022-09-28T21:58:35.667Z,8.61
2022-09-28T22:01:09.053Z,8.53
2022-09-28T22:03:36.707Z,8.52
2022-09-28T22:06:04.787Z,8.47
2022-09-28T22:08:32.338Z,8.47
2022-09-28T22:11:10.611Z,8.48
2022-09-28T22:13:41.676Z,8.47
2022-09-28T22:16:09.205Z,8.51
2022-09-28T22:18:36.324Z,8.55
2022-09-28T22:21:11.926Z,8.57
2022-09-28T22:23:39.925Z,8.56
2022-09-28T22:26:11.190Z,8.44
2022-09-28T22:28:42.422Z,8.50
2022-09-28T22:31:09.243Z,8.46
2022-09-28T22:33:36.092Z,8.46
2022-09-28T22:36:04.287Z,8.40
2022-09-28T22:38:32.230Z,8.37
2022-09-28T22:40:59.162Z,8.32
2022-09-28T22:43:26.817Z,8.26
2022-09-28T22:46:05.331Z,8.22
2022-09-28T22:48:32.877Z,8.22
2022-09-28T22:50:59.774Z,8.18
2022-09-28T22:53:28.456Z,8.17
2022-09-28T22:55:56.909Z,8.15
2022-09-28T22:58:23.840Z,8.11
2022-09-28T23:00:50.634Z,8.07
2022-09-28T23:03:18.037Z,8.11
2022-09-28T23:05:55.867Z,8.08
2022-09-28T23:08:23.697Z,7.97
2022-09-28T23:10:51.514Z,8.10
2022-09-28T23:13:18.741Z,8.07
2022-09-28T23:15:56.128Z,8.07
2022-09-28T23:18:23.801Z,8.04
2022-09-28T23:20:57.860Z,8.04
2022-09-28T23:23:24.814Z,8.01
2022-09-28T23:25:52.772Z,7.99
2022-09-28T23:28:21.239Z,7.95
2022-09-28T23:30:48.311Z,7.91
2022-09-28T23:33:16.812Z,7.75
2022-09-28T23:35:44.155Z,7.86
2022-09-28T23:38:13.603Z,7.81
2022-09-28T23:40:41.522Z,7.71
2022-09-28T23:43:08.663Z,7.74
2022-09-28T23:45:35.388Z,7.70
2022-09-28T23:48:02.593Z,7.73
2022-09-28T23:50:29.580Z,7.78
2022-09-28T23:52:56.642Z,7.80
2022-09-28T23:55:23.391Z,7.80
2022-09-28T23:57:51.010Z,7.78
